• Join FlightAware (Why Join?)
  • Login
  • US Flag 
Gobble Gobble! 
07:28PM EST


 

Airport Tracker/Info


-or-


 

Live Flight TrackerFlight Track Log ✈ RPA3212 ✈ 26-Oct-2013 ✈ KTPA - KDCA

Flight Track Log - Related Links

Times and Time Zones

All times are in EDT time to prevent confusion due to time zone crossing. See the RPA3212 flight status page for this flight to view local times or setup timezone preferences in your user account.

Time Position Orientation Groundspeed Altitude Reporting Facility
EDT Latitude Longitude Course Direction KTS MPH feet Rate Location/Type
12:02PM 28.0000 -82.5500 352° North 162 186 900  Level Tampa TRACON
12:03PM 28.0500 -82.5500 360° North 229 264 2,400 2,400 Climbing Tampa TRACON
12:04PM 28.2955 -82.3908 North  Level Estimated
12:05PM 28.4022 -82.3431 North  Level Estimated
12:05PM 28.1975 -82.5558 358° North 254 292 8,300  Level Jacksonville Center
12:06PM 28.5088 -82.2954 354° North  Level Estimated
12:06PM 28.2789 -82.5625 356° North 266 306 10,700  Level Jacksonville Center
12:07PM 28.6154 -82.2475 352° North  Level Estimated
12:07PM 28.3603 -82.5694 356° North 291 335 11,900  Level Jacksonville Center
12:08PM 28.4583 -82.5761 357° North 328 377 14,500 2,340 Climbing Jacksonville Center
12:09PM 28.5606 -82.5806 358° North 349 402 16,600 1,860 Climbing Jacksonville Center
12:10PM 28.6631 -82.5919 354° North 363 418 18,300 1,800 Climbing Jacksonville Center
12:11PM 28.7797 -82.6036 355° North 374 430 20,300 1,980 Climbing Jacksonville Center
12:12PM 28.8883 -82.6200 352° North 379 436 22,300 1,800 Climbing Jacksonville Center
12:13PM 29.0011 -82.6361 353° North 391 450 23,900 1,440 Climbing Jacksonville Center
12:14PM 29.1161 -82.6503 354° North 401 461 25,200 1,020 Climbing Jacksonville Center
12:15PM 29.2308 -82.6664 353° North 412 474 26,000 780 Climbing Jacksonville Center
12:16PM 29.3497 -82.6831 353° North 417 480 26,800 960 Climbing Jacksonville Center
12:17PM 29.4667 -82.6922 356° North 417 480 28,000 1,200 Climbing Jacksonville Center
12:18PM 29.5919 -82.6967 358° North 427 491 29,300 1,260 Climbing Jacksonville Center
12:19PM 29.7111 -82.6942 North 432 497 30,600 1,200 Climbing Jacksonville Center
12:20PM 29.8300 -82.6939 360° North 427 491 31,800 960 Climbing Jacksonville Center
12:21PM 29.9511 -82.6911 North 422 486 32,600 780 Climbing Jacksonville Center
12:22PM 30.0575 -82.6886 North 422 486 33,400 660 Climbing Jacksonville Center
12:23PM 30.1767 -82.6883 360° North 422 486 34,000 600 Climbing Jacksonville Center
12:24PM 30.2997 -82.6856 North 428 493 34,700 480 Climbing Jacksonville Center
12:25PM 30.4250 -82.6853 360° North 433 498 35,000 120 Climbing Jacksonville Center
12:26PM 30.5606 -82.6417 15° North 452 520 35,000  Level Jacksonville Center
12:27PM 30.6878 -82.5833 22° Northeast 458 527 35,000  Level Jacksonville Center
12:28PM 30.8108 -82.5272 21° North 470 541 35,000  Level Jacksonville Center
12:29PM 30.9361 -82.4686 22° Northeast 470 541 35,000  Level Jacksonville Center
12:30PM 31.0611 -82.4075 23° Northeast 470 541 35,000  Level Jacksonville Center
12:31PM 31.1842 -82.3558 20° North 470 541 35,000  Level Jacksonville Center
12:32PM 31.2967 -82.2994 23° Northeast 470 541 35,000  Level Jacksonville Center
12:33PM 31.4133 -82.2475 21° North 470 541 35,000  Level Jacksonville Center
12:34PM 31.5339 -82.1564 33° Northeast 470 541 35,000  Level Jacksonville Center
12:35PM 31.6564 -82.0603 34° Northeast 477 549 35,000  Level Jacksonville Center
12:36PM 31.7583 -81.9836 33° Northeast 482 555 35,000  Level Jacksonville Center
12:37PM 31.8847 -81.8869 33° Northeast 487 560 35,000  Level Jacksonville Center
12:38PM 32.0011 -81.8025 32° Northeast 487 560 35,000  Level Jacksonville Center
12:39PM 32.1047 -81.7275 32° Northeast 487 560 35,000  Level Jacksonville Center
12:40PM 32.2292 -81.6328 33° Northeast 481 554 35,000  Level Jacksonville Center
12:41PM 32.3411 -81.5450 34° Northeast 481 554 35,000  Level Jacksonville Center
12:42PM 32.4467 -81.4697 31° Northeast 481 554 35,000  Level Jacksonville Center
12:43PM 32.5583 -81.3817 34° Northeast 475 547 35,000  Level Jacksonville Center
12:44PM 32.6722 -81.2958 32° Northeast 481 554 35,000  Level Jacksonville Center
12:45PM 32.7858 -81.2072 33° Northeast 481 554 35,000  Level Jacksonville Center
12:46PM 32.8994 -81.1186 33° Northeast 481 554 35,000  Level Jacksonville Center
12:47PM 33.0131 -81.0322 33° Northeast 475 547 35,000  Level Jacksonville Center
12:48PM 33.1244 -80.9456 33° Northeast 481 554 35,000  Level Jacksonville Center
12:49PM 33.2397 -80.8561 33° Northeast 481 554 35,000  Level Jacksonville Center
12:50PM 33.3531 -80.7664 33° Northeast 481 554 35,000  Level Jacksonville Center
12:51PM 33.4644 -80.6817 32° Northeast 476 548 35,000  Level Jacksonville Center
12:52PM 33.5775 -80.5917 34° Northeast 476 548 35,000  Level Jacksonville Center
12:53PM 33.7011 -80.4986 32° Northeast 476 548 35,000  Level Jacksonville Center
12:54PM 33.8100 -80.4106 34° Northeast 476 548 35,000  Level Jacksonville Center
12:55PM 33.9208 -80.3197 34° Northeast 476 548 35,000  Level Jacksonville Center
12:56PM 34.0336 -80.2339 32° Northeast 476 548 35,000  Level Jacksonville Center
12:57PM 34.1403 -80.1453 35° Northeast 476 548 35,000  Level Jacksonville Center
12:58PM 34.2508 -80.0539 34° Northeast 476 548 35,000  Level Jacksonville Center
12:59PM 34.4058 -79.9364 32° Northeast 474 545 35,000  Level Washington Center
01:00PM 34.5133 -79.8464 35° Northeast 474 545 35,000  Level Washington Center
01:01PM 34.6231 -79.7561 34° Northeast 469 540 35,000  Level Washington Center
01:02PM 34.7347 -79.6658 34° Northeast 469 540 35,000  Level Washington Center
01:03PM 34.8461 -79.5778 33° Northeast 474 545 35,000  Level Washington Center
01:04PM 34.9556 -79.4869 34° Northeast 474 545 35,000  Level Washington Center
01:05PM 35.0647 -79.3983 34° Northeast 474 545 35,000  Level Washington Center
01:06PM 35.1742 -79.3069 34° Northeast 474 545 35,000  Level Washington Center
01:07PM 35.2811 -79.2203 33° Northeast 474 545 35,000  Level Washington Center
01:08PM 35.3922 -79.1286 34° Northeast 474 545 35,000  Level Washington Center
01:09PM 35.4992 -79.0414 34° Northeast 469 540 35,000  Level Washington Center
01:10PM 35.6061 -78.9514 34° Northeast 469 540 35,000  Level Washington Center
01:11PM 35.7150 -78.8639 33° Northeast 469 540 35,000  Level Washington Center
01:12PM 35.8261 -78.7686 35° Northeast 474 545 35,000  Level Washington Center
01:13PM 35.9456 -78.6683 34° Northeast 474 545 35,000 -120 Level Washington Center
01:14PM 36.0564 -78.5750 34° Northeast 474 545 34,800 -1,380 Descending Washington Center
01:15PM 36.1650 -78.4814 35° Northeast 474 545 32,300 -2,580 Descending Washington Center
01:16PM 36.2736 -78.3900 34° Northeast 474 545 29,800 -2,580 Descending Washington Center
01:17PM 36.3822 -78.2983 34° Northeast 474 545 27,300 -1,380 Descending Washington Center
01:18PM 36.4864 -78.2089 35° Northeast 462 532 27,000 -180 Descending Washington Center
01:19PM 36.5883 -78.1192 35° Northeast 457 526 27,000  Level Washington Center
01:20PM 36.6906 -78.0294 35° Northeast 452 520 27,000  Level Washington Center
01:21PM 36.7944 -77.9417 34° Northeast 452 520 27,000  Level Washington Center
01:22PM 36.8964 -77.8514 35° Northeast 452 520 27,000 -300 Level Washington Center
01:23PM 37.0064 -77.7689 31° Northeast 458 527 26,500 -780 Descending Washington Center
01:24PM 37.1200 -77.7147 36° Northeast 444 511 25,500 -1,020 Descending Washington Center
01:25PM 37.1072 -77.6501 36° Northeast  Level FlightAware Approximate
01:25PM 37.2314 -77.6631 20° North 430 495 24,500  Level Washington Center
01:26PM 37.3408 -77.6111 21° North 425 489 23,500 -1,020 Descending Washington Center
01:27PM 37.4522 -77.5564 21° North 425 489 22,500 -780 Descending Washington Center
01:28PM 37.5636 -77.5069 19° North 425 489 22,000 -300 Descending Washington Center
01:29PM 37.6728 -77.4519 22° Northeast 425 489 22,000 -960 Level Washington Center
01:30PM 37.7842 -77.3994 20° North 425 489 20,200 -1,980 Descending Washington Center
01:31PM 37.8892 -77.3494 21° North 419 482 18,000 -2,040 Descending Washington Center
01:32PM 37.9922 -77.2992 21° North 400 460 16,100 -2,040 Descending Washington Center
01:33PM 38.0825 -77.2589 19° North 389 448 14,100 -2,040 Descending Washington Center
01:34PM 38.1789 -77.2136 20° North 379 436 12,100 -2,040 Descending Washington Center
01:35PM 38.2819 -77.1603 22° Northeast 368 423 10,000 -1,080 Descending Washington Center
01:36PM 38.3675 -77.1436 North 356 410 10,000  Level Washington Center
01:37PM 38.4639 -77.1217 10° North 351 404 10,000  Level Washington Center
01:38PM 38.5619 -77.1025 North 351 404 10,000 -120 Level Washington Center
01:39PM 38.6333 -77.0833 12° North 322 371 9,900 -1,080 Descending Potomac TRACON
01:40PM 38.7167 -77.0667 North 298 343 8,300 -1,620 Descending Potomac TRACON
01:41PM 38.7833 -77.0833 349° North 277 319 6,900 -1,740 Descending Potomac TRACON
01:42PM 38.8500 -77.1333 330° Northwest 270 311 5,100 -1,860 Descending Potomac TRACON
01:43PM 38.9000 -77.2000 314° West 265 305 3,100 -1,020 Descending Potomac TRACON
01:44PM 38.9500 -77.2000 360° North 238 274 3,000 -540 Descending Potomac TRACON
01:45PM 38.9333 -77.1333 108° East 194 223 2,100 -900 Descending Potomac TRACON
01:46PM 38.9000 -77.0833 131° Southeast 155 178 1,300 -840 Descending Potomac TRACON
01:47PM 38.8833 -77.0500 123° Southeast 134 154 600 -780 Descending Potomac TRACON